Owensburg, Indiana
Current Conditions -  °F | °C
As of 11:14 AM on Monday 24 Nov 2014 (Local Time) from KBMG Reporting Station
Overcast Overcast  
Wind Chill: 28°   Ceiling: 1600
Heat Index: 39°   Visibility: 10mi
Dew Point: 34°   Wind: 23mph
Humidity: 82%   Direction: 260°W
Pressure: 29.58"   Gusts: 32mph
Location:  38.92°N, 86.73°W
Report Text: KBMG 241614Z 26020G28KT 10SM OVC016 04/01 A2958 RMK AO2 PK WND 26028/1613 T00390011
Loading
Personal Weather Stations






























Interactive Weather Map New forecast layout! Learn more

10-Day Weather Forecast

Advertisements
Track Severe Weather on mobile